WZZ872B LROP-LRBC
Flight info
| Callsign | WZZ872B |
|---|---|
| Flight time | 0h 29m |
| Altitude | 15000 |
| Route | DENAK DCT FOCSA/N0282F090 T74 KENUX |
| Aircraft | A20N/M-SDE2E3FGHIRWXY/LB1 |
Departure
| Time | 2026-04-14 17:12 |
|---|---|
| Airport | Bucharest Henri Coandă International Airport (LROP) |
Arrival
| Time | 2026-04-14 17:42 |
|---|---|
| Airport | Bacău George Enescu International Airport (LRBC) |
| Time | Latitude | Longitude | Altitude | Speed | Heading |
|---|---|---|---|---|---|
| 2026-04-14 16:49 | 44.57123 | 26.08170 | 325 ft | 0 kts | 173° |
| 2026-04-14 17:04 | 44.57129 | 26.08169 | 325 ft | 3 kts | 173° |
| 2026-04-14 17:05 | 44.57148 | 26.08166 | 323 ft | 3 kts | 173° |
| 2026-04-14 17:05 | 44.57166 | 26.08163 | 323 ft | 3 kts | 162° |
| 2026-04-14 17:05 | 44.57183 | 26.08151 | 323 ft | 3 kts | 144° |
| 2026-04-14 17:05 | 44.57197 | 26.08135 | 323 ft | 3 kts | 128° |
| 2026-04-14 17:06 | 44.57201 | 26.08128 | 323 ft | 0 kts | 122° |
| 2026-04-14 17:07 | 44.57203 | 26.08124 | 323 ft | 0 kts | 122° |
| 2026-04-14 17:08 | 44.57200 | 26.08144 | 325 ft | 4 kts | 99° |
| 2026-04-14 17:08 | 44.57201 | 26.08224 | 325 ft | 13 kts | 83° |
| 2026-04-14 17:08 | 44.57224 | 26.08374 | 323 ft | 16 kts | 82° |
| 2026-04-14 17:08 | 44.57254 | 26.08499 | 325 ft | 8 kts | 21° |
| 2026-04-14 17:09 | 44.57333 | 26.08489 | 325 ft | 17 kts | 354° |
| 2026-04-14 17:09 | 44.57458 | 26.08471 | 324 ft | 18 kts | 354° |
| 2026-04-14 17:09 | 44.57583 | 26.08452 | 326 ft | 18 kts | 353° |
| 2026-04-14 17:09 | 44.57665 | 26.08508 | 328 ft | 13 kts | 71° |
| 2026-04-14 17:10 | 44.57675 | 26.08614 | 327 ft | 0 kts | 84° |
| 2026-04-14 17:10 | 44.57676 | 26.08623 | 327 ft | 2 kts | 84° |
| 2026-04-14 17:10 | 44.57677 | 26.08629 | 327 ft | 0 kts | 84° |
| 2026-04-14 17:10 | 44.57677 | 26.08641 | 327 ft | 0 kts | 84° |
| 2026-04-14 17:12 | 44.57678 | 26.08650 | 327 ft | 7 kts | 84° |
| 2026-04-14 17:12 | 44.57702 | 26.08949 | 324 ft | 64 kts | 83° |
| 2026-04-14 17:12 | 44.57777 | 26.09954 | 324 ft | 143 kts | 84° |
| 2026-04-14 17:12 | 44.57878 | 26.11448 | 967 ft | 153 kts | 84° |
| 2026-04-14 17:13 | 44.57955 | 26.12938 | 1930 ft | 154 kts | 86° |
| 2026-04-14 17:13 | 44.58060 | 26.14534 | 2600 ft | 173 kts | 85° |
| 2026-04-14 17:13 | 44.58198 | 26.16280 | 3249 ft | 186 kts | 85° |
| 2026-04-14 17:13 | 44.58347 | 26.18139 | 3916 ft | 198 kts | 85° |
| 2026-04-14 17:14 | 44.58509 | 26.20203 | 4027 ft | 230 kts | 85° |
| 2026-04-14 17:14 | 44.58691 | 26.22559 | 4035 ft | 250 kts | 85° |
| 2026-04-14 17:14 | 44.58882 | 26.25009 | 4037 ft | 253 kts | 85° |
| 2026-04-14 17:14 | 44.59071 | 26.27433 | 4037 ft | 253 kts | 85° |
| 2026-04-14 17:15 | 44.59262 | 26.29899 | 4038 ft | 253 kts | 85° |
| 2026-04-14 17:15 | 44.59451 | 26.32349 | 4036 ft | 253 kts | 84° |
| 2026-04-14 17:15 | 44.59852 | 26.34751 | 4201 ft | 254 kts | 70° |
| 2026-04-14 17:15 | 44.60763 | 26.36882 | 4749 ft | 257 kts | 49° |
| 2026-04-14 17:16 | 44.62238 | 26.38331 | 5514 ft | 265 kts | 22° |
| 2026-04-14 17:16 | 44.64055 | 26.38909 | 6298 ft | 271 kts | 8° |
| 2026-04-14 17:16 | 44.65943 | 26.39193 | 7060 ft | 275 kts | 4° |
| 2026-04-14 17:16 | 44.67846 | 26.39422 | 7811 ft | 274 kts | 3° |
| 2026-04-14 17:17 | 44.69722 | 26.39646 | 8574 ft | 275 kts | 2° |
| 2026-04-14 17:17 | 44.71631 | 26.39879 | 9353 ft | 275 kts | 2° |
| 2026-04-14 17:17 | 44.73558 | 26.40120 | 10161 ft | 282 kts | 2° |
| 2026-04-14 17:17 | 44.75533 | 26.40368 | 10894 ft | 290 kts | 2° |
| 2026-04-14 17:18 | 44.77586 | 26.40630 | 11648 ft | 298 kts | 1° |
| 2026-04-14 17:18 | 44.79681 | 26.40899 | 12417 ft | 306 kts | 1° |
| 2026-04-14 17:18 | 44.81825 | 26.41175 | 13209 ft | 313 kts | 1° |
| 2026-04-14 17:18 | 44.84019 | 26.41458 | 14008 ft | 319 kts | 1° |
| 2026-04-14 17:19 | 44.86229 | 26.41745 | 14692 ft | 327 kts | 1° |
| 2026-04-14 17:19 | 44.88541 | 26.42042 | 15116 ft | 342 kts | 1° |
| 2026-04-14 17:19 | 44.90994 | 26.42354 | 15249 ft | 365 kts | 1° |
| 2026-04-14 17:19 | 44.93581 | 26.42686 | 15252 ft | 377 kts | 1° |
| 2026-04-14 17:20 | 44.96214 | 26.43030 | 15256 ft | 385 kts | 1° |
| 2026-04-14 17:20 | 44.98941 | 26.43383 | 15254 ft | 400 kts | 2° |
| 2026-04-14 17:20 | 45.01733 | 26.43851 | 15250 ft | 405 kts | 5° |
| 2026-04-14 17:20 | 45.04528 | 26.44483 | 15253 ft | 407 kts | 6° |
| 2026-04-14 17:21 | 45.07319 | 26.45200 | 15252 ft | 407 kts | 7° |
| 2026-04-14 17:21 | 45.10068 | 26.45938 | 15254 ft | 407 kts | 7° |
| 2026-04-14 17:21 | 45.12598 | 26.46620 | 15258 ft | 407 kts | 7° |
| 2026-04-14 17:21 | 45.15387 | 26.47360 | 15259 ft | 408 kts | 7° |
| 2026-04-14 17:22 | 45.18183 | 26.48089 | 15258 ft | 410 kts | 7° |
| 2026-04-14 17:22 | 45.20997 | 26.48812 | 15262 ft | 410 kts | 7° |
| 2026-04-14 17:22 | 45.23808 | 26.49527 | 15261 ft | 410 kts | 7° |
| 2026-04-14 17:22 | 45.26619 | 26.50240 | 15260 ft | 410 kts | 7° |
| 2026-04-14 17:23 | 45.29431 | 26.50953 | 15264 ft | 410 kts | 7° |
| 2026-04-14 17:23 | 45.32240 | 26.51666 | 15264 ft | 410 kts | 7° |
| 2026-04-14 17:23 | 45.35048 | 26.52379 | 15263 ft | 410 kts | 7° |
| 2026-04-14 17:23 | 45.37821 | 26.53085 | 15261 ft | 411 kts | 7° |
| 2026-04-14 17:24 | 45.40633 | 26.53801 | 15268 ft | 411 kts | 7° |
| 2026-04-14 17:24 | 45.43443 | 26.54520 | 15264 ft | 410 kts | 7° |
| 2026-04-14 17:24 | 45.46254 | 26.55239 | 15266 ft | 410 kts | 7° |
| 2026-04-14 17:24 | 45.49062 | 26.55958 | 15264 ft | 410 kts | 7° |
| 2026-04-14 17:25 | 45.51862 | 26.56676 | 15268 ft | 410 kts | 7° |
| 2026-04-14 17:25 | 45.54667 | 26.57395 | 15263 ft | 409 kts | 7° |
| 2026-04-14 17:25 | 45.57475 | 26.58116 | 15268 ft | 409 kts | 7° |
| 2026-04-14 17:25 | 45.60274 | 26.58835 | 15266 ft | 409 kts | 7° |
| 2026-04-14 17:26 | 45.63078 | 26.59554 | 15265 ft | 409 kts | 7° |
| 2026-04-14 17:26 | 45.65880 | 26.60274 | 15263 ft | 409 kts | 7° |
| 2026-04-14 17:26 | 45.68680 | 26.60996 | 15259 ft | 409 kts | 7° |
| 2026-04-14 17:26 | 45.71484 | 26.61718 | 15265 ft | 409 kts | 7° |
| 2026-04-14 17:27 | 45.74282 | 26.62441 | 15265 ft | 409 kts | 7° |
| 2026-04-14 17:27 | 45.77080 | 26.63166 | 15222 ft | 406 kts | 7° |
| 2026-04-14 17:27 | 45.79858 | 26.63886 | 15064 ft | 406 kts | 7° |
| 2026-04-14 17:27 | 45.82634 | 26.64604 | 14819 ft | 406 kts | 7° |
| 2026-04-14 17:28 | 45.85422 | 26.65327 | 14568 ft | 405 kts | 7° |
| 2026-04-14 17:28 | 45.88189 | 26.66046 | 14217 ft | 403 kts | 7° |
| 2026-04-14 17:28 | 45.90906 | 26.66751 | 13848 ft | 402 kts | 7° |
| 2026-04-14 17:28 | 45.93652 | 26.67463 | 13439 ft | 399 kts | 7° |
| 2026-04-14 17:29 | 45.96382 | 26.68173 | 13044 ft | 398 kts | 7° |
| 2026-04-14 17:29 | 45.99102 | 26.68882 | 12658 ft | 396 kts | 7° |
| 2026-04-14 17:29 | 46.01818 | 26.69590 | 12273 ft | 395 kts | 7° |
| 2026-04-14 17:29 | 46.04516 | 26.70294 | 11887 ft | 393 kts | 7° |
| 2026-04-14 17:30 | 46.07158 | 26.70987 | 11504 ft | 378 kts | 8° |
| 2026-04-14 17:30 | 46.09700 | 26.71657 | 11115 ft | 364 kts | 8° |
| 2026-04-14 17:30 | 46.12150 | 26.72303 | 10742 ft | 352 kts | 8° |
| 2026-04-14 17:30 | 46.14524 | 26.72926 | 10374 ft | 341 kts | 8° |
| 2026-04-14 17:31 | 46.16811 | 26.73526 | 9998 ft | 336 kts | 8° |
| 2026-04-14 17:31 | 46.19106 | 26.74125 | 9599 ft | 335 kts | 8° |
| 2026-04-14 17:31 | 46.21401 | 26.74724 | 9195 ft | 334 kts | 8° |
| 2026-04-14 17:31 | 46.23682 | 26.75321 | 8797 ft | 332 kts | 9° |
| 2026-04-14 17:32 | 46.25950 | 26.75917 | 8524 ft | 330 kts | 9° |
| 2026-04-14 17:32 | 46.28210 | 26.76509 | 8312 ft | 329 kts | 9° |
| 2026-04-14 17:32 | 46.30455 | 26.77003 | 8100 ft | 319 kts | 6° |
| 2026-04-14 17:32 | 46.32602 | 26.77411 | 7884 ft | 304 kts | 6° |
| 2026-04-14 17:33 | 46.34659 | 26.77789 | 7616 ft | 293 kts | 6° |
| 2026-04-14 17:33 | 46.36659 | 26.78156 | 7250 ft | 287 kts | 6° |
| 2026-04-14 17:33 | 46.38621 | 26.78516 | 6873 ft | 282 kts | 7° |
| 2026-04-14 17:34 | 46.42427 | 26.79218 | 6097 ft | 273 kts | 7° |
| 2026-04-14 17:34 | 46.44301 | 26.79565 | 5708 ft | 270 kts | 7° |
| 2026-04-14 17:34 | 46.46154 | 26.79909 | 5313 ft | 267 kts | 7° |
| 2026-04-14 17:34 | 46.47996 | 26.80250 | 4928 ft | 265 kts | 7° |
| 2026-04-14 17:35 | 46.49818 | 26.80588 | 4532 ft | 264 kts | 8° |
| 2026-04-14 17:35 | 46.51634 | 26.80925 | 4140 ft | 263 kts | 8° |
| 2026-04-14 17:35 | 46.53445 | 26.81262 | 3753 ft | 262 kts | 8° |
| 2026-04-14 17:35 | 46.55244 | 26.81598 | 3371 ft | 260 kts | 8° |
| 2026-04-14 17:36 | 46.56433 | 26.81819 | 3126 ft | 259 kts | 8° |
| 2026-04-14 17:36 | 46.58170 | 26.82142 | 2987 ft | 241 kts | 8° |
| 2026-04-14 17:36 | 46.60270 | 26.82531 | 3003 ft | 224 kts | 8° |
| 2026-04-14 17:36 | 46.61315 | 26.82727 | 3030 ft | 224 kts | 8° |
| 2026-04-14 17:37 | 46.62866 | 26.83018 | 3005 ft | 225 kts | 8° |
| 2026-04-14 17:37 | 46.64406 | 26.83307 | 2984 ft | 226 kts | 8° |
| 2026-04-14 17:37 | 46.65964 | 26.83636 | 2996 ft | 225 kts | 14° |
| 2026-04-14 17:37 | 46.67321 | 26.84528 | 2979 ft | 206 kts | 42° |
| 2026-04-14 17:38 | 46.68133 | 26.86153 | 2993 ft | 196 kts | 73° |
| 2026-04-14 17:38 | 46.68265 | 26.88076 | 2996 ft | 191 kts | 103° |
| 2026-04-14 17:38 | 46.67743 | 26.89807 | 2994 ft | 187 kts | 130° |
| 2026-04-14 17:38 | 46.66729 | 26.90950 | 2994 ft | 186 kts | 158° |
| 2026-04-14 17:39 | 46.65466 | 26.91259 | 2991 ft | 186 kts | 184° |
| 2026-04-14 17:39 | 46.64240 | 26.90667 | 2996 ft | 188 kts | 209° |
| 2026-04-14 17:39 | 46.63204 | 26.89573 | 2976 ft | 177 kts | 217° |
| 2026-04-14 17:39 | 46.62308 | 26.88486 | 2962 ft | 158 kts | 216° |
| 2026-04-14 17:40 | 46.61399 | 26.87744 | 2977 ft | 147 kts | 190° |
| 2026-04-14 17:40 | 46.60399 | 26.87793 | 3012 ft | 143 kts | 168° |
| 2026-04-14 17:40 | 46.59435 | 26.88139 | 2900 ft | 142 kts | 165° |
| 2026-04-14 17:40 | 46.58466 | 26.88563 | 2454 ft | 148 kts | 162° |
| 2026-04-14 17:41 | 46.57475 | 26.89033 | 2003 ft | 152 kts | 164° |
| 2026-04-14 17:41 | 46.56425 | 26.89373 | 1506 ft | 157 kts | 171° |
| 2026-04-14 17:41 | 46.55377 | 26.89721 | 1096 ft | 149 kts | 163° |
| 2026-04-14 17:41 | 46.54441 | 26.90121 | 874 ft | 133 kts | 164° |
| 2026-04-14 17:42 | 46.53596 | 26.90460 | 736 ft | 120 kts | 163° |
| 2026-04-14 17:42 | 46.52810 | 26.90774 | 625 ft | 116 kts | 165° |
| 2026-04-14 17:42 | 46.52252 | 26.90994 | 621 ft | 39 kts | 165° |
| 2026-04-14 17:42 | 46.52132 | 26.91039 | 621 ft | 17 kts | 166° |
| 2026-04-14 17:43 | 46.51972 | 26.91100 | 618 ft | 33 kts | 165° |
| 2026-04-14 17:43 | 46.51731 | 26.91196 | 612 ft | 35 kts | 164° |
| 2026-04-14 17:43 | 46.51517 | 26.91281 | 607 ft | 25 kts | 165° |
| 2026-04-14 17:43 | 46.51351 | 26.91345 | 614 ft | 25 kts | 166° |
| 2026-04-14 17:44 | 46.51175 | 26.91412 | 603 ft | 24 kts | 162° |
| 2026-04-14 17:44 | 46.51136 | 26.91561 | 603 ft | 16 kts | 79° |
| 2026-04-14 17:44 | 46.51167 | 26.91706 | 603 ft | 15 kts | 60° |
| 2026-04-14 17:44 | 46.51243 | 26.91730 | 613 ft | 13 kts | 336° |
| 2026-04-14 17:45 | 46.51395 | 26.91667 | 616 ft | 29 kts | 345° |
| 2026-04-14 17:45 | 46.51598 | 26.91593 | 610 ft | 32 kts | 346° |
| 2026-04-14 17:45 | 46.51818 | 26.91499 | 617 ft | 34 kts | 344° |
| 2026-04-14 17:45 | 46.52040 | 26.91411 | 619 ft | 35 kts | 345° |
| 2026-04-14 17:46 | 46.52278 | 26.91319 | 616 ft | 29 kts | 346° |
| 2026-04-14 17:46 | 46.52456 | 26.91253 | 619 ft | 26 kts | 346° |
| 2026-04-14 17:46 | 46.52627 | 26.91181 | 624 ft | 25 kts | 345° |
| 2026-04-14 17:46 | 46.52795 | 26.91115 | 620 ft | 25 kts | 343° |
| 2026-04-14 17:47 | 46.52959 | 26.91049 | 619 ft | 24 kts | 344° |
| 2026-04-14 17:47 | 46.53116 | 26.90979 | 627 ft | 21 kts | 321° |
| 2026-04-14 17:47 | 46.53180 | 26.90932 | 624 ft | 0 kts | 343° |
| 2026-04-14 17:48 | 46.53211 | 26.90923 | 620 ft | 8 kts | 6° |
| 2026-04-14 17:48 | 46.53235 | 26.90959 | 627 ft | 0 kts | 81° |
| 2026-04-14 17:48 | 46.53237 | 26.90971 | 623 ft | 0 kts | 78° |
| 2026-04-14 17:48 | 46.53237 | 26.90972 | 623 ft | 0 kts | 78° |